sensor_id;sensor_type;location;lat;lon;timestamp;temperature;humidity
29211;DHT22;16250;49.932;10.980;2022-12-07T00:00:42;2.30;99.90
29211;DHT22;16250;49.932;10.980;2022-12-07T00:03:07;2.30;99.90
29211;DHT22;16250;49.932;10.980;2022-12-07T00:05:33;2.30;99.90
29211;DHT22;16250;49.932;10.980;2022-12-07T00:07:58;2.30;99.90
29211;DHT22;16250;49.932;10.980;2022-12-07T00:10:24;2.30;99.90
29211;DHT22;16250;49.932;10.980;2022-12-07T00:12:49;2.30;99.90
29211;DHT22;16250;49.932;10.980;2022-12-07T00:15:15;2.30;99.90
29211;DHT22;16250;49.932;10.980;2022-12-07T00:17:41;2.30;99.90
29211;DHT22;16250;49.932;10.980;2022-12-07T00:20:07;2.30;99.90
29211;DHT22;16250;49.932;10.980;2022-12-07T00:22:32;2.20;99.90
29211;DHT22;16250;49.932;10.980;2022-12-07T00:24:58;2.30;99.90
29211;DHT22;16250;49.932;10.980;2022-12-07T00:27:23;2.30;99.90
29211;DHT22;16250;49.932;10.980;2022-12-07T00:29:49;2.30;99.90
29211;DHT22;16250;49.932;10.980;2022-12-07T00:32:14;2.30;99.90
29211;DHT22;16250;49.932;10.980;2022-12-07T00:34:40;2.20;99.90
29211;DHT22;16250;49.932;10.980;2022-12-07T00:37:05;2.20;99.90
29211;DHT22;16250;49.932;10.980;2022-12-07T00:39:31;2.20;99.90
29211;DHT22;16250;49.932;10.980;2022-12-07T00:41:56;2.20;99.90
29211;DHT22;16250;49.932;10.980;2022-12-07T00:44:22;2.20;99.90
29211;DHT22;16250;49.932;10.980;2022-12-07T00:46:47;2.30;99.90
29211;DHT22;16250;49.932;10.980;2022-12-07T00:49:13;2.20;99.90
29211;DHT22;16250;49.932;10.980;2022-12-07T00:51:39;2.20;99.90
29211;DHT22;16250;49.932;10.980;2022-12-07T00:54:04;2.20;99.90
29211;DHT22;16250;49.932;10.980;2022-12-07T00:56:30;2.20;99.90
29211;DHT22;16250;49.932;10.980;2022-12-07T00:58:58;2.10;99.90
29211;DHT22;16250;49.932;10.980;2022-12-07T01:01:26;2.10;99.90
29211;DHT22;16250;49.932;10.980;2022-12-07T01:03:53;2.20;99.90
29211;DHT22;16250;49.932;10.980;2022-12-07T01:06:20;2.10;99.90
29211;DHT22;16250;49.932;10.980;2022-12-07T01:08:45;2.20;99.90
29211;DHT22;16250;49.932;10.980;2022-12-07T01:11:19;2.20;99.90
29211;DHT22;16250;49.932;10.980;2022-12-07T01:13:45;2.20;99.90
29211;DHT22;16250;49.932;10.980;2022-12-07T01:16:14;2.30;99.90
29211;DHT22;16250;49.932;10.980;2022-12-07T01:18:40;2.30;99.90
29211;DHT22;16250;49.932;10.980;2022-12-07T01:21:17;2.30;99.90
29211;DHT22;16250;49.932;10.980;2022-12-07T01:23:43;2.20;99.90
29211;DHT22;16250;49.932;10.980;2022-12-07T01:26:19;2.30;99.90
29211;DHT22;16250;49.932;10.980;2022-12-07T01:28:45;2.20;99.90
29211;DHT22;16250;49.932;10.980;2022-12-07T01:31:13;2.10;99.90
29211;DHT22;16250;49.932;10.980;2022-12-07T01:33:41;2.10;99.90
29211;DHT22;16250;49.932;10.980;2022-12-07T01:36:23;2.20;99.90
29211;DHT22;16250;49.932;10.980;2022-12-07T01:38:51;2.20;99.90
29211;DHT22;16250;49.932;10.980;2022-12-07T01:41:18;2.20;99.90
29211;DHT22;16250;49.932;10.980;2022-12-07T01:44:22;2.20;99.90
29211;DHT22;16250;49.932;10.980;2022-12-07T01:46:53;2.20;99.90
29211;DHT22;16250;49.932;10.980;2022-12-07T01:52:16;2.20;99.90
29211;DHT22;16250;49.932;10.980;2022-12-07T01:54:44;2.20;99.90
29211;DHT22;16250;49.932;10.980;2022-12-07T01:57:11;2.20;99.90
29211;DHT22;16250;49.932;10.980;2022-12-07T01:59:38;2.20;99.90
29211;DHT22;16250;49.932;10.980;2022-12-07T02:02:10;2.10;99.90
29211;DHT22;16250;49.932;10.980;2022-12-07T02:04:38;2.10;99.90
29211;DHT22;16250;49.932;10.980;2022-12-07T02:07:05;2.10;99.90
29211;DHT22;16250;49.932;10.980;2022-12-07T02:09:30;2.10;99.90
29211;DHT22;16250;49.932;10.980;2022-12-07T02:11:56;2.20;99.90
29211;DHT22;16250;49.932;10.980;2022-12-07T02:14:22;2.20;99.90
29211;DHT22;16250;49.932;10.980;2022-12-07T02:17:08;2.20;99.90
29211;DHT22;16250;49.932;10.980;2022-12-07T02:23:38;2.00;99.90
29211;DHT22;16250;49.932;10.980;2022-12-07T02:28:34;2.00;99.90
29211;DHT22;16250;49.932;10.980;2022-12-07T02:31:19;2.00;99.90
29211;DHT22;16250;49.932;10.980;2022-12-07T02:33:52;2.10;99.90
29211;DHT22;16250;49.932;10.980;2022-12-07T02:36:28;2.00;99.90
29211;DHT22;16250;49.932;10.980;2022-12-07T02:41:29;2.10;99.90
29211;DHT22;16250;49.932;10.980;2022-12-07T02:44:00;2.10;99.90
29211;DHT22;16250;49.932;10.980;2022-12-07T02:46:37;2.10;99.90
29211;DHT22;16250;49.932;10.980;2022-12-07T02:49:04;2.10;99.90
29211;DHT22;16250;49.932;10.980;2022-12-07T02:51:31;2.10;99.90
29211;DHT22;16250;49.932;10.980;2022-12-07T02:53:57;2.10;99.90
29211;DHT22;16250;49.932;10.980;2022-12-07T02:56:27;2.10;99.90
29211;DHT22;16250;49.932;10.980;2022-12-07T02:59:35;2.00;99.90
29211;DHT22;16250;49.932;10.980;2022-12-07T03:10:53;1.70;99.90
29211;DHT22;16250;49.932;10.980;2022-12-07T03:16:25;1.60;99.90
29211;DHT22;16250;49.932;10.980;2022-12-07T03:18:55;1.60;99.90
29211;DHT22;16250;49.932;10.980;2022-12-07T03:21:29;1.70;99.90
29211;DHT22;16250;49.932;10.980;2022-12-07T03:23:59;1.80;99.90
29211;DHT22;16250;49.932;10.980;2022-12-07T03:26:32;1.80;99.90
29211;DHT22;16250;49.932;10.980;2022-12-07T03:29:03;1.80;99.90
29211;DHT22;16250;49.932;10.980;2022-12-07T03:31:33;1.80;99.90
29211;DHT22;16250;49.932;10.980;2022-12-07T03:34:34;1.80;99.90
29211;DHT22;16250;49.932;10.980;2022-12-07T03:37:08;1.80;99.90
29211;DHT22;16250;49.932;10.980;2022-12-07T03:39:45;1.80;99.90
29211;DHT22;16250;49.932;10.980;2022-12-07T03:42:11;1.70;99.90
29211;DHT22;16250;49.932;10.980;2022-12-07T03:44:38;1.70;99.90
29211;DHT22;16250;49.932;10.980;2022-12-07T03:47:52;1.70;99.90
29211;DHT22;16250;49.932;10.980;2022-12-07T03:50:29;1.70;99.90
29211;DHT22;16250;49.932;10.980;2022-12-07T03:55:52;1.80;99.90
29211;DHT22;16250;49.932;10.980;2022-12-07T03:58:20;1.80;99.90
29211;DHT22;16250;49.932;10.980;2022-12-07T04:00:47;1.80;99.90
29211;DHT22;16250;49.932;10.980;2022-12-07T04:03:13;1.70;99.90
29211;DHT22;16250;49.932;10.980;2022-12-07T04:05:39;1.70;99.90
29211;DHT22;16250;49.932;10.980;2022-12-07T04:08:05;1.80;99.90
29211;DHT22;16250;49.932;10.980;2022-12-07T04:10:31;1.80;99.90
29211;DHT22;16250;49.932;10.980;2022-12-07T04:12:56;1.90;99.90
29211;DHT22;16250;49.932;10.980;2022-12-07T04:15:22;1.90;99.90
29211;DHT22;16250;49.932;10.980;2022-12-07T04:17:48;1.80;99.90
29211;DHT22;16250;49.932;10.980;2022-12-07T04:20:14;1.80;99.90
29211;DHT22;16250;49.932;10.980;2022-12-07T04:22:39;1.60;99.90
29211;DHT22;16250;49.932;10.980;2022-12-07T04:25:05;1.60;99.90
29211;DHT22;16250;49.932;10.980;2022-12-07T04:27:31;1.60;99.90
29211;DHT22;16250;49.932;10.980;2022-12-07T04:29:57;1.70;99.90
29211;DHT22;16250;49.932;10.980;2022-12-07T04:32:23;1.60;99.90
29211;DHT22;16250;49.932;10.980;2022-12-07T04:34:48;1.70;99.90
29211;DHT22;16250;49.932;10.980;2022-12-07T04:37:14;1.80;99.90
29211;DHT22;16250;49.932;10.980;2022-12-07T04:39:39;1.90;99.90
29211;DHT22;16250;49.932;10.980;2022-12-07T04:42:05;1.80;99.90
29211;DHT22;16250;49.932;10.980;2022-12-07T04:44:31;1.80;99.90
29211;DHT22;16250;49.932;10.980;2022-12-07T04:46:57;1.70;99.90
29211;DHT22;16250;49.932;10.980;2022-12-07T04:49:23;1.60;99.90
29211;DHT22;16250;49.932;10.980;2022-12-07T04:51:48;1.70;99.90
29211;DHT22;16250;49.932;10.980;2022-12-07T04:54:15;1.70;99.90
29211;DHT22;16250;49.932;10.980;2022-12-07T04:56:41;1.80;99.90
29211;DHT22;16250;49.932;10.980;2022-12-07T04:59:07;1.80;99.90
29211;DHT22;16250;49.932;10.980;2022-12-07T05:01:33;1.70;99.90
29211;DHT22;16250;49.932;10.980;2022-12-07T05:03:59;1.70;99.90
29211;DHT22;16250;49.932;10.980;2022-12-07T05:06:25;1.70;99.90
29211;DHT22;16250;49.932;10.980;2022-12-07T05:08:51;1.70;99.90
29211;DHT22;16250;49.932;10.980;2022-12-07T05:11:16;1.70;99.90
29211;DHT22;16250;49.932;10.980;2022-12-07T05:14:02;1.70;99.90
29211;DHT22;16250;49.932;10.980;2022-12-07T05:16:28;1.70;99.90
29211;DHT22;16250;49.932;10.980;2022-12-07T05:18:54;1.80;99.90
29211;DHT22;16250;49.932;10.980;2022-12-07T05:21:19;1.80;99.90
29211;DHT22;16250;49.932;10.980;2022-12-07T05:23:45;1.70;99.90
29211;DHT22;16250;49.932;10.980;2022-12-07T05:26:11;1.80;99.90
29211;DHT22;16250;49.932;10.980;2022-12-07T05:28:36;1.80;99.90
29211;DHT22;16250;49.932;10.980;2022-12-07T05:31:02;1.80;99.90
29211;DHT22;16250;49.932;10.980;2022-12-07T05:33:28;1.80;99.90
29211;DHT22;16250;49.932;10.980;2022-12-07T05:35:53;1.70;99.90
29211;DHT22;16250;49.932;10.980;2022-12-07T05:38:19;1.70;99.90
29211;DHT22;16250;49.932;10.980;2022-12-07T05:40:44;1.60;99.90
29211;DHT22;16250;49.932;10.980;2022-12-07T05:43:10;1.60;99.90
29211;DHT22;16250;49.932;10.980;2022-12-07T05:45:36;1.50;99.90
29211;DHT22;16250;49.932;10.980;2022-12-07T05:48:01;1.60;99.90
29211;DHT22;16250;49.932;10.980;2022-12-07T05:50:27;1.50;99.90
29211;DHT22;16250;49.932;10.980;2022-12-07T05:52:53;1.50;99.90
29211;DHT22;16250;49.932;10.980;2022-12-07T05:55:19;1.60;99.90
29211;DHT22;16250;49.932;10.980;2022-12-07T05:57:44;1.50;99.90
29211;DHT22;16250;49.932;10.980;2022-12-07T06:00:30;1.60;99.90
29211;DHT22;16250;49.932;10.980;2022-12-07T06:02:55;1.50;99.90
29211;DHT22;16250;49.932;10.980;2022-12-07T06:05:21;1.50;99.90
29211;DHT22;16250;49.932;10.980;2022-12-07T06:07:46;1.50;99.90
29211;DHT22;16250;49.932;10.980;2022-12-07T06:10:12;1.50;99.90
29211;DHT22;16250;49.932;10.980;2022-12-07T06:12:37;1.50;99.90
29211;DHT22;16250;49.932;10.980;2022-12-07T06:15:05;1.40;99.90
29211;DHT22;16250;49.932;10.980;2022-12-07T06:17:31;1.50;99.90
29211;DHT22;16250;49.932;10.980;2022-12-07T06:19:57;1.50;99.90
29211;DHT22;16250;49.932;10.980;2022-12-07T06:22:22;1.50;99.90
29211;DHT22;16250;49.932;10.980;2022-12-07T06:24:48;1.50;99.90
29211;DHT22;16250;49.932;10.980;2022-12-07T06:27:13;1.60;99.90
29211;DHT22;16250;49.932;10.980;2022-12-07T06:29:39;1.60;99.90
29211;DHT22;16250;49.932;10.980;2022-12-07T06:32:05;1.60;99.90
29211;DHT22;16250;49.932;10.980;2022-12-07T06:34:30;1.60;99.90
29211;DHT22;16250;49.932;10.980;2022-12-07T06:36:56;1.60;99.90
29211;DHT22;16250;49.932;10.980;2022-12-07T06:39:24;1.60;99.90
29211;DHT22;16250;49.932;10.980;2022-12-07T06:41:50;1.60;99.90
29211;DHT22;16250;49.932;10.980;2022-12-07T06:44:19;1.60;99.90
29211;DHT22;16250;49.932;10.980;2022-12-07T06:46:46;1.70;99.90
29211;DHT22;16250;49.932;10.980;2022-12-07T06:49:12;1.70;99.90
29211;DHT22;16250;49.932;10.980;2022-12-07T06:51:37;1.70;99.90
29211;DHT22;16250;49.932;10.980;2022-12-07T06:54:11;1.70;99.90
29211;DHT22;16250;49.932;10.980;2022-12-07T06:56:37;1.80;99.90
29211;DHT22;16250;49.932;10.980;2022-12-07T06:59:03;1.70;99.90
29211;DHT22;16250;49.932;10.980;2022-12-07T07:01:30;1.70;99.90
29211;DHT22;16250;49.932;10.980;2022-12-07T07:03:56;1.70;99.90
29211;DHT22;16250;49.932;10.980;2022-12-07T07:06:22;1.70;99.90
29211;DHT22;16250;49.932;10.980;2022-12-07T07:08:47;1.80;99.90
29211;DHT22;16250;49.932;10.980;2022-12-07T07:11:13;1.80;99.90
29211;DHT22;16250;49.932;10.980;2022-12-07T07:13:38;1.70;99.90
29211;DHT22;16250;49.932;10.980;2022-12-07T07:16:05;1.80;99.90
29211;DHT22;16250;49.932;10.980;2022-12-07T07:18:30;1.80;99.90
29211;DHT22;16250;49.932;10.980;2022-12-07T07:20:56;1.90;99.90
29211;DHT22;16250;49.932;10.980;2022-12-07T07:23:22;1.80;99.90
29211;DHT22;16250;49.932;10.980;2022-12-07T07:25:48;1.80;99.90
29211;DHT22;16250;49.932;10.980;2022-12-07T07:28:14;1.80;99.90
29211;DHT22;16250;49.932;10.980;2022-12-07T07:30:40;1.80;99.90
29211;DHT22;16250;49.932;10.980;2022-12-07T07:33:06;1.90;99.90
29211;DHT22;16250;49.932;10.980;2022-12-07T07:35:33;1.90;99.90
29211;DHT22;16250;49.932;10.980;2022-12-07T07:37:59;1.90;99.90
29211;DHT22;16250;49.932;10.980;2022-12-07T07:40:25;1.90;99.90
29211;DHT22;16250;49.932;10.980;2022-12-07T07:42:52;1.90;99.90
29211;DHT22;16250;49.932;10.980;2022-12-07T07:45:19;1.90;99.90
29211;DHT22;16250;49.932;10.980;2022-12-07T07:47:45;1.90;99.90
29211;DHT22;16250;49.932;10.980;2022-12-07T07:50:11;1.90;99.90
29211;DHT22;16250;49.932;10.980;2022-12-07T07:52:36;2.00;99.90
29211;DHT22;16250;49.932;10.980;2022-12-07T07:55:03;2.00;99.90
29211;DHT22;16250;49.932;10.980;2022-12-07T07:57:28;1.90;99.90
29211;DHT22;16250;49.932;10.980;2022-12-07T07:59:54;1.90;99.90
29211;DHT22;16250;49.932;10.980;2022-12-07T08:02:20;1.90;99.90
29211;DHT22;16250;49.932;10.980;2022-12-07T08:04:46;2.00;99.90
29211;DHT22;16250;49.932;10.980;2022-12-07T08:07:12;2.00;99.90
29211;DHT22;16250;49.932;10.980;2022-12-07T08:09:38;2.00;99.90
29211;DHT22;16250;49.932;10.980;2022-12-07T08:12:04;2.00;99.90
29211;DHT22;16250;49.932;10.980;2022-12-07T08:14:30;2.00;99.90
29211;DHT22;16250;49.932;10.980;2022-12-07T08:16:56;2.00;99.90
29211;DHT22;16250;49.932;10.980;2022-12-07T08:19:21;2.00;99.90
29211;DHT22;16250;49.932;10.980;2022-12-07T08:21:47;2.00;99.90
29211;DHT22;16250;49.932;10.980;2022-12-07T08:24:13;2.10;99.90
29211;DHT22;16250;49.932;10.980;2022-12-07T08:26:39;2.00;99.90
29211;DHT22;16250;49.932;10.980;2022-12-07T08:29:05;2.10;99.90
29211;DHT22;16250;49.932;10.980;2022-12-07T08:31:30;2.10;99.90
29211;DHT22;16250;49.932;10.980;2022-12-07T08:33:56;2.10;99.90
29211;DHT22;16250;49.932;10.980;2022-12-07T08:36:23;2.10;99.90
29211;DHT22;16250;49.932;10.980;2022-12-07T08:38:48;2.20;99.90
29211;DHT22;16250;49.932;10.980;2022-12-07T08:41:14;2.20;99.90
29211;DHT22;16250;49.932;10.980;2022-12-07T08:43:40;2.20;99.90
29211;DHT22;16250;49.932;10.980;2022-12-07T08:46:21;2.20;99.90
29211;DHT22;16250;49.932;10.980;2022-12-07T08:49:23;2.20;99.90
29211;DHT22;16250;49.932;10.980;2022-12-07T08:51:41;2.30;99.90
29211;DHT22;16250;49.932;10.980;2022-12-07T08:54:10;2.20;99.90
29211;DHT22;16250;49.932;10.980;2022-12-07T08:56:36;2.20;99.90
29211;DHT22;16250;49.932;10.980;2022-12-07T08:59:03;2.20;99.90
29211;DHT22;16250;49.932;10.980;2022-12-07T09:01:30;2.20;99.90
29211;DHT22;16250;49.932;10.980;2022-12-07T09:03:55;2.20;99.90
29211;DHT22;16250;49.932;10.980;2022-12-07T09:06:21;2.20;99.90
29211;DHT22;16250;49.932;10.980;2022-12-07T09:08:50;2.20;99.90
29211;DHT22;16250;49.932;10.980;2022-12-07T09:11:16;2.20;99.90
29211;DHT22;16250;49.932;10.980;2022-12-07T09:13:42;2.20;99.90
29211;DHT22;16250;49.932;10.980;2022-12-07T09:16:07;2.30;99.90
29211;DHT22;16250;49.932;10.980;2022-12-07T09:18:33;2.50;99.90
29211;DHT22;16250;49.932;10.980;2022-12-07T09:20:58;2.30;99.90
29211;DHT22;16250;49.932;10.980;2022-12-07T09:23:24;2.30;99.90
29211;DHT22;16250;49.932;10.980;2022-12-07T09:25:50;2.40;99.90
29211;DHT22;16250;49.932;10.980;2022-12-07T09:28:16;2.40;99.90
29211;DHT22;16250;49.932;10.980;2022-12-07T09:30:48;2.40;99.90
29211;DHT22;16250;49.932;10.980;2022-12-07T09:33:14;2.40;99.90
29211;DHT22;16250;49.932;10.980;2022-12-07T09:35:47;2.40;99.90
29211;DHT22;16250;49.932;10.980;2022-12-07T09:38:13;2.40;99.90
29211;DHT22;16250;49.932;10.980;2022-12-07T09:40:39;2.40;99.90
29211;DHT22;16250;49.932;10.980;2022-12-07T09:43:19;2.40;99.90
29211;DHT22;16250;49.932;10.980;2022-12-07T09:45:48;2.40;99.90
29211;DHT22;16250;49.932;10.980;2022-12-07T09:48:30;2.50;99.90
29211;DHT22;16250;49.932;10.980;2022-12-07T09:50:58;2.50;99.90
29211;DHT22;16250;49.932;10.980;2022-12-07T09:53:33;2.50;99.90
29211;DHT22;16250;49.932;10.980;2022-12-07T09:56:00;2.60;99.90
29211;DHT22;16250;49.932;10.980;2022-12-07T09:58:28;2.60;99.90
29211;DHT22;16250;49.932;10.980;2022-12-07T10:01:08;2.50;99.90
29211;DHT22;16250;49.932;10.980;2022-12-07T10:03:37;2.60;99.90
29211;DHT22;16250;49.932;10.980;2022-12-07T10:06:05;2.60;99.90
29211;DHT22;16250;49.932;10.980;2022-12-07T10:08:31;2.60;99.90
29211;DHT22;16250;49.932;10.980;2022-12-07T10:10:57;2.70;99.90
29211;DHT22;16250;49.932;10.980;2022-12-07T10:13:37;2.70;99.90
29211;DHT22;16250;49.932;10.980;2022-12-07T10:16:03;2.70;99.90
29211;DHT22;16250;49.932;10.980;2022-12-07T10:18:36;2.80;99.90
29211;DHT22;16250;49.932;10.980;2022-12-07T10:23:34;2.80;99.90
29211;DHT22;16250;49.932;10.980;2022-12-07T10:26:35;2.80;99.90
29211;DHT22;16250;49.932;10.980;2022-12-07T10:31:54;2.80;99.90
29211;DHT22;16250;49.932;10.980;2022-12-07T10:36:52;2.80;99.90
29211;DHT22;16250;49.932;10.980;2022-12-07T10:39:20;2.80;99.90
29211;DHT22;16250;49.932;10.980;2022-12-07T10:41:57;2.80;99.90
29211;DHT22;16250;49.932;10.980;2022-12-07T10:44:31;2.80;99.90
29211;DHT22;16250;49.932;10.980;2022-12-07T10:49:55;2.90;99.90
29211;DHT22;16250;49.932;10.980;2022-12-07T10:56:12;3.00;99.90
29211;DHT22;16250;49.932;10.980;2022-12-07T11:09:35;3.00;99.90
29211;DHT22;16250;49.932;10.980;2022-12-07T11:20:28;3.10;99.90
29211;DHT22;16250;49.932;10.980;2022-12-07T11:23:13;3.20;99.90
29211;DHT22;16250;49.932;10.980;2022-12-07T11:26:04;3.30;99.90
29211;DHT22;16250;49.932;10.980;2022-12-07T11:31:32;3.30;99.90
29211;DHT22;16250;49.932;10.980;2022-12-07T11:34:22;3.30;99.90
29211;DHT22;16250;49.932;10.980;2022-12-07T11:36:52;3.30;99.90
29211;DHT22;16250;49.932;10.980;2022-12-07T11:42:00;3.30;99.90
29211;DHT22;16250;49.932;10.980;2022-12-07T11:52:48;3.20;99.90
29211;DHT22;16250;49.932;10.980;2022-12-07T11:55:52;3.20;99.90
29211;DHT22;16250;49.932;10.980;2022-12-07T11:58:40;3.30;99.90
29211;DHT22;16250;49.932;10.980;2022-12-07T12:03:48;3.30;99.90
29211;DHT22;16250;49.932;10.980;2022-12-07T12:06:14;3.30;99.90
29211;DHT22;16250;49.932;10.980;2022-12-07T12:08:46;3.30;99.90
29211;DHT22;16250;49.932;10.980;2022-12-07T12:19:23;3.60;99.90
29211;DHT22;16250;49.932;10.980;2022-12-07T12:21:55;3.60;99.90
29211;DHT22;16250;49.932;10.980;2022-12-07T12:24:25;3.60;99.90
29211;DHT22;16250;49.932;10.980;2022-12-07T12:26:58;3.70;99.90
29211;DHT22;16250;49.932;10.980;2022-12-07T12:29:31;3.70;99.90
29211;DHT22;16250;49.932;10.980;2022-12-07T12:37:40;3.70;99.90
29211;DHT22;16250;49.932;10.980;2022-12-07T12:42:58;3.60;99.90
29211;DHT22;16250;49.932;10.980;2022-12-07T12:45:26;3.50;99.90
29211;DHT22;16250;49.932;10.980;2022-12-07T12:50:38;3.50;99.90
29211;DHT22;16250;49.932;10.980;2022-12-07T12:53:19;3.50;99.90
29211;DHT22;16250;49.932;10.980;2022-12-07T12:55:58;3.50;99.90
29211;DHT22;16250;49.932;10.980;2022-12-07T12:58:38;3.50;99.90
29211;DHT22;16250;49.932;10.980;2022-12-07T13:04:01;3.50;99.90
29211;DHT22;16250;49.932;10.980;2022-12-07T13:06:36;3.50;99.90
29211;DHT22;16250;49.932;10.980;2022-12-07T13:09:03;3.50;99.90
29211;DHT22;16250;49.932;10.980;2022-12-07T13:11:41;3.40;99.90
29211;DHT22;16250;49.932;10.980;2022-12-07T13:27:46;3.40;99.90
29211;DHT22;16250;49.932;10.980;2022-12-07T13:30:17;3.30;99.90
29211;DHT22;16250;49.932;10.980;2022-12-07T13:32:52;3.30;99.90
29211;DHT22;16250;49.932;10.980;2022-12-07T13:35:37;3.30;99.90
29211;DHT22;16250;49.932;10.980;2022-12-07T13:38:25;3.20;99.90
29211;DHT22;16250;49.932;10.980;2022-12-07T13:41:15;3.30;99.90
29211;DHT22;16250;49.932;10.980;2022-12-07T13:43:48;3.30;99.90
29211;DHT22;16250;49.932;10.980;2022-12-07T13:46:13;3.30;99.90
29211;DHT22;16250;49.932;10.980;2022-12-07T13:48:46;3.30;99.90
29211;DHT22;16250;49.932;10.980;2022-12-07T13:51:26;3.30;99.90
29211;DHT22;16250;49.932;10.980;2022-12-07T13:54:00;3.30;99.90
29211;DHT22;16250;49.932;10.980;2022-12-07T13:56:31;3.30;99.90
29211;DHT22;16250;49.932;10.980;2022-12-07T13:58:57;3.40;99.90
29211;DHT22;16250;49.932;10.980;2022-12-07T14:01:24;3.30;99.90
29211;DHT22;16250;49.932;10.980;2022-12-07T14:03:50;3.30;99.90
29211;DHT22;16250;49.932;10.980;2022-12-07T14:06:26;3.30;99.90
29211;DHT22;16250;49.932;10.980;2022-12-07T14:09:25;3.30;99.90
29211;DHT22;16250;49.932;10.980;2022-12-07T14:11:54;3.30;99.90
29211;DHT22;16250;49.932;10.980;2022-12-07T14:14:25;3.30;99.90
29211;DHT22;16250;49.932;10.980;2022-12-07T14:16:57;3.30;99.90
29211;DHT22;16250;49.932;10.980;2022-12-07T14:19:43;3.30;99.90
29211;DHT22;16250;49.932;10.980;2022-12-07T14:24:44;3.30;99.90
29211;DHT22;16250;49.932;10.980;2022-12-07T14:27:23;3.30;99.90
29211;DHT22;16250;49.932;10.980;2022-12-07T14:29:51;3.30;99.90
29211;DHT22;16250;49.932;10.980;2022-12-07T14:32:21;3.30;99.90
29211;DHT22;16250;49.932;10.980;2022-12-07T14:35:16;3.30;99.90
29211;DHT22;16250;49.932;10.980;2022-12-07T14:37:45;3.30;99.90
29211;DHT22;16250;49.932;10.980;2022-12-07T14:40:25;3.30;99.90
29211;DHT22;16250;49.932;10.980;2022-12-07T14:43:00;3.30;99.90
29211;DHT22;16250;49.932;10.980;2022-12-07T14:45:26;3.30;99.90
29211;DHT22;16250;49.932;10.980;2022-12-07T14:47:51;3.30;99.90
29211;DHT22;16250;49.932;10.980;2022-12-07T14:50:18;3.30;99.90
29211;DHT22;16250;49.932;10.980;2022-12-07T14:53:30;3.30;99.90
29211;DHT22;16250;49.932;10.980;2022-12-07T14:55:36;3.10;99.90
29211;DHT22;16250;49.932;10.980;2022-12-07T14:58:02;2.90;99.90
29211;DHT22;16250;49.932;10.980;2022-12-07T15:00:28;2.80;99.90
29211;DHT22;16250;49.932;10.980;2022-12-07T15:02:54;2.60;99.90
29211;DHT22;16250;49.932;10.980;2022-12-07T15:05:20;2.50;99.90
29211;DHT22;16250;49.932;10.980;2022-12-07T15:07:47;2.40;99.90
29211;DHT22;16250;49.932;10.980;2022-12-07T15:10:17;2.40;99.90
29211;DHT22;16250;49.932;10.980;2022-12-07T15:12:43;2.40;99.90
29211;DHT22;16250;49.932;10.980;2022-12-07T15:15:09;2.20;99.90
29211;DHT22;16250;49.932;10.980;2022-12-07T15:17:35;2.20;99.90
29211;DHT22;16250;49.932;10.980;2022-12-07T15:20:01;2.30;99.90
29211;DHT22;16250;49.932;10.980;2022-12-07T15:22:26;2.40;99.90
29211;DHT22;16250;49.932;10.980;2022-12-07T15:24:52;2.40;99.90
29211;DHT22;16250;49.932;10.980;2022-12-07T15:27:17;2.40;99.90
29211;DHT22;16250;49.932;10.980;2022-12-07T15:29:43;2.40;99.90
29211;DHT22;16250;49.932;10.980;2022-12-07T15:32:08;2.50;99.90
29211;DHT22;16250;49.932;10.980;2022-12-07T15:34:34;2.50;99.90
29211;DHT22;16250;49.932;10.980;2022-12-07T15:36:59;2.60;99.90
29211;DHT22;16250;49.932;10.980;2022-12-07T15:39:25;2.60;99.90
29211;DHT22;16250;49.932;10.980;2022-12-07T15:41:50;2.50;99.90
29211;DHT22;16250;49.932;10.980;2022-12-07T15:44:16;2.50;99.90
29211;DHT22;16250;49.932;10.980;2022-12-07T15:47:00;2.50;99.90
29211;DHT22;16250;49.932;10.980;2022-12-07T15:49:26;2.40;99.90
29211;DHT22;16250;49.932;10.980;2022-12-07T15:51:52;2.40;99.90
29211;DHT22;16250;49.932;10.980;2022-12-07T15:54:21;2.40;99.90
29211;DHT22;16250;49.932;10.980;2022-12-07T15:56:47;2.40;99.90
29211;DHT22;16250;49.932;10.980;2022-12-07T15:59:13;2.50;99.90
29211;DHT22;16250;49.932;10.980;2022-12-07T16:01:38;2.50;99.90
29211;DHT22;16250;49.932;10.980;2022-12-07T16:04:04;2.50;99.90
29211;DHT22;16250;49.932;10.980;2022-12-07T16:06:30;2.50;99.90
29211;DHT22;16250;49.932;10.980;2022-12-07T16:08:55;2.50;99.90
29211;DHT22;16250;49.932;10.980;2022-12-07T16:11:21;2.50;99.90
29211;DHT22;16250;49.932;10.980;2022-12-07T16:13:47;2.60;99.90
29211;DHT22;16250;49.932;10.980;2022-12-07T16:16:15;2.60;99.90
29211;DHT22;16250;49.932;10.980;2022-12-07T16:18:42;2.60;99.90
29211;DHT22;16250;49.932;10.980;2022-12-07T16:21:08;2.60;99.90
29211;DHT22;16250;49.932;10.980;2022-12-07T16:23:34;2.50;99.90
29211;DHT22;16250;49.932;10.980;2022-12-07T16:26:08;2.50;99.90
29211;DHT22;16250;49.932;10.980;2022-12-07T16:28:34;2.40;99.90
29211;DHT22;16250;49.932;10.980;2022-12-07T16:31:06;2.30;99.90
29211;DHT22;16250;49.932;10.980;2022-12-07T16:33:36;2.30;99.90
29211;DHT22;16250;49.932;10.980;2022-12-07T16:36:04;2.30;99.90
29211;DHT22;16250;49.932;10.980;2022-12-07T16:38:30;2.30;99.90
29211;DHT22;16250;49.932;10.980;2022-12-07T16:40:56;2.30;99.90
29211;DHT22;16250;49.932;10.980;2022-12-07T16:43:23;2.20;99.90
29211;DHT22;16250;49.932;10.980;2022-12-07T16:45:48;2.30;99.90
29211;DHT22;16250;49.932;10.980;2022-12-07T16:48:15;2.30;99.90
29211;DHT22;16250;49.932;10.980;2022-12-07T16:50:41;2.30;99.90
29211;DHT22;16250;49.932;10.980;2022-12-07T16:53:08;2.40;99.90
29211;DHT22;16250;49.932;10.980;2022-12-07T16:55:42;2.40;99.90
29211;DHT22;16250;49.932;10.980;2022-12-07T16:58:08;2.40;99.90
29211;DHT22;16250;49.932;10.980;2022-12-07T17:00:34;2.40;99.90
29211;DHT22;16250;49.932;10.980;2022-12-07T17:03:00;2.40;99.90
29211;DHT22;16250;49.932;10.980;2022-12-07T17:05:26;2.50;99.90
29211;DHT22;16250;49.932;10.980;2022-12-07T17:07:53;2.40;99.90
29211;DHT22;16250;49.932;10.980;2022-12-07T17:10:19;2.50;99.90
29211;DHT22;16250;49.932;10.980;2022-12-07T17:12:45;2.50;99.90
29211;DHT22;16250;49.932;10.980;2022-12-07T17:15:11;2.40;99.90
29211;DHT22;16250;49.932;10.980;2022-12-07T17:17:53;2.40;99.90
29211;DHT22;16250;49.932;10.980;2022-12-07T17:20:19;2.50;99.90
29211;DHT22;16250;49.932;10.980;2022-12-07T17:22:46;2.60;99.90
29211;DHT22;16250;49.932;10.980;2022-12-07T17:25:12;2.50;99.90
29211;DHT22;16250;49.932;10.980;2022-12-07T17:27:37;2.60;99.90
29211;DHT22;16250;49.932;10.980;2022-12-07T17:30:04;2.60;99.90
29211;DHT22;16250;49.932;10.980;2022-12-07T17:32:30;2.60;99.90
29211;DHT22;16250;49.932;10.980;2022-12-07T17:34:56;2.70;99.90
29211;DHT22;16250;49.932;10.980;2022-12-07T17:37:22;2.60;99.90